Terminal Aerodrome Forecast
Issued by NWS

Current Version | Previous Version | Graphics & Text | Print | Product List | Glossary On
Versions: 1 2 3 4 5 6 7 8 9 10 11 12 13 14
649
FTUS41 KILN 182337
TAFLCK
TAF
KLCK 182337Z 1900/1924 36005KT P6SM VCSH BKN035
      TEMPO 1900/1902 5SM -RA OVC030
     FM190300 01005KT P6SM VCSH BKN018
     FM190500 30005KT P6SM VCSH BKN012
     FM190700 29007KT P6SM VCSH OVC008
     FM190900 29009KT P6SM -SHSNRA OVC010
     FM191300 34012G20KT P6SM OVC015
     FM192000 32014G21KT P6SM BKN035
     FM192200 32013KT P6SM SCT050=

USA.gov is the U.S. government's official web portal to all federal, state and local government web resources and services.